createdAt,value
2023-03-03T00:03:14.976Z,100924.69
2023-03-03T00:08:37.232Z,100913.41
2023-03-03T00:13:59.074Z,100911.75
2023-03-03T00:19:21.558Z,100917.66
2023-03-03T00:24:43.447Z,100910.97
2023-03-03T00:30:20.095Z,100896.31
2023-03-03T00:35:43.335Z,100894.78
2023-03-03T00:41:16.680Z,100884.56
2023-03-03T00:46:38.559Z,100873.63
2023-03-03T00:52:00.421Z,100872.78
2023-03-03T00:57:22.275Z,100867.66
2023-03-03T01:02:44.125Z,100863.34
2023-03-03T01:08:06.616Z,100844.47
2023-03-03T01:13:32.755Z,100848.81
2023-03-03T01:18:54.591Z,100842.97
2023-03-03T01:24:16.485Z,100819.22
2023-03-03T01:29:38.327Z,100821.81
2023-03-03T01:35:00.316Z,100813.91
2023-03-03T01:40:25.439Z,100805.53
2023-03-03T01:45:47.265Z,100798.03
2023-03-03T01:51:38.632Z,100797.13
2023-03-03T01:57:05.441Z,100799.72
2023-03-03T02:02:28.750Z,100805.69
2023-03-03T02:07:51.501Z,100772.66
2023-03-03T02:13:13.404Z,100790.78
2023-03-03T02:18:35.486Z,100799.25
2023-03-03T02:24:16.277Z,100795.13
2023-03-03T02:29:38.207Z,100794.28
2023-03-03T02:35:00.112Z,100781.50
2023-03-03T02:40:26.530Z,100790.91
2023-03-03T02:45:48.567Z,100794.50
2023-03-03T02:51:10.808Z,100767.91
2023-03-03T02:56:32.964Z,100775.84
2023-03-03T03:01:55.595Z,100781.88
2023-03-03T03:07:17.454Z,100780.13
2023-03-03T03:12:39.471Z,100764.59
2023-03-03T03:18:01.307Z,100759.97
2023-03-03T03:23:23.184Z,100766.66
2023-03-03T03:28:45.087Z,100763.97
2023-03-03T03:34:06.984Z,100773.38
2023-03-03T03:39:28.984Z,100770.56
2023-03-03T03:44:50.850Z,100779.59
2023-03-03T03:50:13.303Z,100772.88
2023-03-03T03:55:35.199Z,100766.78
2023-03-03T04:01:06.522Z,100754.84
2023-03-03T04:06:28.531Z,100743.53
2023-03-03T04:11:50.396Z,100751.28
2023-03-03T04:17:20.144Z,100745.34
2023-03-03T04:22:43.012Z,100742.66
2023-03-03T04:28:05.725Z,100742.00
2023-03-03T04:33:27.752Z,100723.25
2023-03-03T04:38:50.455Z,100729.28
2023-03-03T04:44:12.311Z,100733.50
2023-03-03T04:49:34.152Z,100725.81
2023-03-03T04:54:55.990Z,100716.38
2023-03-03T05:00:18.347Z,100713.91
2023-03-03T05:05:41.194Z,100713.06
2023-03-03T05:11:04.135Z,100689.31
2023-03-03T05:16:26.190Z,100709.03
2023-03-03T05:21:48.116Z,100698.94
2023-03-03T05:27:09.990Z,100702.56
2023-03-03T05:32:32.546Z,100689.38
2023-03-03T05:37:54.852Z,100695.81
2023-03-03T05:43:16.928Z,100688.78
2023-03-03T05:48:38.886Z,100688.91
2023-03-03T05:54:00.747Z,100675.16
2023-03-03T05:59:23.223Z,100655.06
2023-03-03T06:04:45.081Z,100669.94
2023-03-03T06:10:07.997Z,100653.44
2023-03-03T06:15:30.171Z,100666.78
2023-03-03T06:20:55.325Z,100670.78
2023-03-03T06:26:17.190Z,100684.53
2023-03-03T06:31:39.112Z,100679.66
2023-03-03T06:37:01.012Z,100680.59
2023-03-03T06:42:22.934Z,100687.03
2023-03-03T06:47:44.848Z,100692.81
2023-03-03T06:53:15.365Z,100699.97
2023-03-03T06:58:37.181Z,100693.00
2023-03-03T07:03:59.207Z,100701.47
2023-03-03T07:09:27.025Z,100694.81
2023-03-03T07:15:15.277Z,100701.72
2023-03-03T07:20:39.358Z,100700.91
2023-03-03T07:26:01.192Z,100689.53
2023-03-03T07:31:25.810Z,100684.16
2023-03-03T07:36:50.315Z,100701.31
2023-03-03T07:42:25.660Z,100696.41
2023-03-03T07:47:48.110Z,100701.72
2023-03-03T07:53:21.892Z,100688.94
2023-03-03T07:58:44.401Z,100713.53
2023-03-03T08:04:39.327Z,100710.97
2023-03-03T08:10:02.632Z,100710.16
2023-03-03T08:15:28.379Z,100711.19
2023-03-03T08:20:53.028Z,100723.16
2023-03-03T08:26:14.968Z,100742.88
2023-03-03T08:31:41.658Z,100734.03
2023-03-03T08:37:03.875Z,100733.44
2023-03-03T08:42:25.765Z,100757.97
2023-03-03T08:47:47.734Z,100751.69
2023-03-03T08:53:10.808Z,100767.75
2023-03-03T08:58:35.679Z,100762.38
2023-03-03T09:03:57.939Z,100754.59
2023-03-03T09:09:19.855Z,100761.03
2023-03-03T09:14:41.688Z,100742.41
2023-03-03T09:20:25.013Z,100745.03
2023-03-03T09:25:47.039Z,100736.78
2023-03-03T09:31:25.401Z,100723.16
2023-03-03T09:36:47.390Z,100717.31
2023-03-03T09:42:27.974Z,100715.69
2023-03-03T09:47:49.744Z,100696.25
2023-03-03T09:53:39.576Z,100697.72
2023-03-03T09:59:39.131Z,100698.50
2023-03-03T10:05:14.552Z,100697.00
2023-03-03T10:10:53.532Z,100700.41
2023-03-03T10:16:52.573Z,100715.63
2023-03-03T10:22:20.786Z,100712.25
2023-03-03T10:27:55.605Z,100719.56
2023-03-03T10:33:28.339Z,100715.53
2023-03-03T10:39:16.227Z,100724.06
2023-03-03T10:44:44.262Z,100723.13
2023-03-03T10:50:24.933Z,100723.75
2023-03-03T10:55:59.851Z,100699.75
2023-03-03T11:01:40.430Z,100716.94
2023-03-03T11:07:36.977Z,100722.03
2023-03-03T11:13:16.471Z,100711.75
2023-03-03T11:19:05.212Z,100721.94
2023-03-03T11:24:31.218Z,100722.72
2023-03-03T11:30:06.613Z,100708.81
2023-03-03T11:35:56.053Z,100709.69
2023-03-03T11:41:39.552Z,100712.31
2023-03-03T11:47:06.812Z,100705.44
2023-03-03T11:52:55.812Z,100712.25
2023-03-03T11:58:24.964Z,100700.88
2023-03-03T12:04:03.050Z,100707.56
2023-03-03T12:09:33.760Z,100719.38
2023-03-03T12:15:07.898Z,100706.66
2023-03-03T12:20:32.801Z,100708.31
2023-03-03T12:26:03.749Z,100704.94
2023-03-03T12:31:44.598Z,100702.25
2023-03-03T12:37:12.847Z,100706.50
2023-03-03T12:43:00.716Z,100699.03
2023-03-03T12:48:40.556Z,100688.06
2023-03-03T12:54:29.912Z,100693.97
2023-03-03T13:00:10.016Z,100699.13
2023-03-03T13:05:50.670Z,100698.81
2023-03-03T13:11:18.742Z,100683.38
2023-03-03T13:16:49.517Z,100693.72
2023-03-03T13:22:27.870Z,100698.69
2023-03-03T13:27:54.375Z,100694.53
2023-03-03T13:33:27.624Z,100690.59
2023-03-03T13:38:56.386Z,100691.22
2023-03-03T13:44:24.828Z,100671.69
2023-03-03T13:50:13.979Z,100679.41
2023-03-03T13:55:44.095Z,100672.53
2023-03-03T14:01:29.179Z,100663.16
2023-03-03T14:07:03.247Z,100651.16
2023-03-03T14:12:49.022Z,100657.25
2023-03-03T14:18:18.931Z,100657.22
2023-03-03T14:23:58.879Z,100655.66
2023-03-03T14:29:26.808Z,100669.16
2023-03-03T14:35:01.625Z,100659.78
2023-03-03T14:40:31.709Z,100641.03
2023-03-03T14:45:54.517Z,100668.16
2023-03-03T14:51:40.629Z,100644.44
2023-03-03T14:57:19.203Z,100647.19
2023-03-03T15:02:43.528Z,100648.84
2023-03-03T15:08:05.649Z,100649.69
2023-03-03T15:13:35.145Z,100651.34
2023-03-03T15:19:09.110Z,100668.94
2023-03-03T15:24:49.385Z,100653.69
2023-03-03T15:30:33.306Z,100665.28
2023-03-03T15:36:02.642Z,100664.44
2023-03-03T15:41:40.874Z,100662.78
2023-03-03T15:47:43.906Z,100648.03
2023-03-03T15:53:29.261Z,100653.00
2023-03-03T15:59:15.679Z,100652.28
2023-03-03T16:04:43.357Z,100648.16
2023-03-03T16:10:34.620Z,100645.53
2023-03-03T16:16:13.522Z,100644.00
2023-03-03T16:22:16.477Z,100649.00
2023-03-03T16:28:00.952Z,100643.78
2023-03-03T16:33:41.472Z,100640.47
2023-03-03T16:39:37.713Z,100639.28
2023-03-03T16:45:23.818Z,100634.22
2023-03-03T16:51:03.956Z,100635.59
2023-03-03T16:56:43.286Z,100617.69
2023-03-03T17:02:05.097Z,100636.88
2023-03-03T17:08:12.138Z,100631.69
2023-03-03T17:14:03.339Z,100635.00
2023-03-03T17:19:30.338Z,100636.22
2023-03-03T17:25:03.023Z,100632.63
2023-03-03T17:30:34.165Z,100622.28
2023-03-03T17:36:13.568Z,100627.22
2023-03-03T17:48:31.095Z,100626.47
2023-03-03T17:54:11.482Z,100616.97
2023-03-03T17:59:45.412Z,100610.09
2023-03-03T18:05:44.922Z,100618.94
2023-03-03T18:11:57.205Z,100614.47
2023-03-03T18:17:41.900Z,100622.56
2023-03-03T18:23:24.024Z,100610.38
2023-03-03T18:28:49.255Z,100608.91
2023-03-03T18:34:20.103Z,100587.50
2023-03-03T18:40:01.864Z,100608.81
2023-03-03T18:45:23.649Z,100596.00
2023-03-03T18:50:50.541Z,100581.03
2023-03-03T18:56:12.490Z,100586.31
2023-03-03T19:01:44.472Z,100568.38
2023-03-03T19:07:17.358Z,100582.13
2023-03-03T19:12:41.976Z,100579.84
2023-03-03T19:18:26.930Z,100576.44
2023-03-03T19:23:53.329Z,100555.94
2023-03-03T19:29:30.208Z,100557.16
2023-03-03T19:35:13.769Z,100565.16
2023-03-03T19:41:00.992Z,100570.47
2023-03-03T19:46:41.448Z,100561.91
2023-03-03T19:52:24.348Z,100541.84
2023-03-03T19:58:16.414Z,100522.22
2023-03-03T20:04:10.932Z,100510.38
2023-03-03T20:09:58.963Z,100526.66
2023-03-03T20:15:28.450Z,100517.59
2023-03-03T20:21:10.023Z,100507.38
2023-03-03T20:26:48.942Z,100504.84
2023-03-03T20:32:22.846Z,100498.94
2023-03-03T20:38:09.537Z,100499.13
2023-03-03T20:44:02.396Z,100475.69
2023-03-03T20:49:59.125Z,100492.91
2023-03-03T20:55:39.286Z,100488.00
2023-03-03T21:01:12.850Z,100480.56
2023-03-03T21:06:38.881Z,100456.63
2023-03-03T21:12:04.656Z,100461.03
2023-03-03T21:17:29.577Z,100457.47
2023-03-03T21:22:51.734Z,100444.50
2023-03-03T21:28:19.576Z,100438.88
2023-03-03T21:33:57.337Z,100438.13
2023-03-03T21:39:30.040Z,100422.97
2023-03-03T21:44:51.916Z,100416.22
2023-03-03T21:50:14.258Z,100391.38
2023-03-03T21:55:36.141Z,100394.00
2023-03-03T22:00:58.041Z,100388.16
2023-03-03T22:06:19.939Z,100381.41
2023-03-03T22:11:41.853Z,100367.13
2023-03-03T22:17:03.870Z,100361.03
2023-03-03T22:22:25.751Z,100350.09
2023-03-03T22:27:47.851Z,100343.31
2023-03-03T22:33:09.699Z,100346.75
2023-03-03T22:38:31.603Z,100298.25
2023-03-03T22:43:53.464Z,100294.94
2023-03-03T22:49:15.354Z,100308.69
2023-03-03T22:54:37.186Z,100292.50
2023-03-03T22:59:59.095Z,100279.66
2023-03-03T23:05:21.068Z,100283.28
2023-03-03T23:10:43.088Z,100279.03
2023-03-03T23:16:05.551Z,100260.44
2023-03-03T23:21:27.442Z,100258.75
2023-03-03T23:26:49.332Z,100262.09
2023-03-03T23:32:11.234Z,100247.72
2023-03-03T23:37:33.308Z,100247.72
2023-03-03T23:42:55.255Z,100210.34
2023-03-03T23:48:17.143Z,100225.72
2023-03-03T23:53:39.056Z,100216.22
2023-03-03T23:59:00.927Z,100198.50
